Time;durP1;ratioP1;P1;durP2;ratioP2;P2;SDS_P1;SDS_P2;PMS_P1;PMS_P2;Temp;Humidity;BMP_temperature;BMP_pressure;BME280_temperature;BME280_humidity;BME280_pressure;Samples;Min_cycle;Max_cycle;Signal;HPM_P1;HPM_P2
2021/07/04 00:00:36;;;;;;;32.38;23.25;;;10.70;99.90;;;;;;5010427;28;20026;-78
2021/07/04 00:03:03;;;;;;;43.10;29.42;;;10.60;99.90;;;;;;5010116;28;20037;-77
2021/07/04 00:05:37;;;;;;;41.70;29.80;;;10.50;99.90;;;;;;5011596;28;20026;-78
2021/07/04 00:08:05;;;;;;;48.17;31.63;;;10.50;99.90;;;;;;4993258;28;20041;-78
2021/07/04 00:10:34;;;;;;;38.38;26.42;;;10.40;99.90;;;;;;4991890;28;20023;-78
2021/07/04 00:13:00;;;;;;;32.67;22.33;;;10.40;99.90;;;;;;4991741;28;20033;-78
2021/07/04 00:15:28;;;;;;;34.70;26.33;;;10.40;99.90;;;;;;4991972;28;20031;-78
2021/07/04 00:17:54;;;;;;;34.40;24.30;;;10.30;99.90;;;;;;4992458;28;20030;-78
2021/07/04 00:20:22;;;;;;;24.55;19.00;;;10.30;99.90;;;;;;4990625;28;20030;-78
2021/07/04 00:22:48;;;;;;;17.42;13.65;;;10.30;99.90;;;;;;4991641;28;20120;-78
2021/07/04 00:25:15;;;;;;;23.02;17.73;;;10.30;99.90;;;;;;4994234;28;20058;-78
2021/07/04 00:27:41;;;;;;;37.50;19.05;;;10.30;99.90;;;;;;5004484;28;20030;-78
2021/07/04 00:30:10;;;;;;;29.45;17.25;;;10.30;99.90;;;;;;5013657;28;20109;-78
2021/07/04 00:32:36;;;;;;;21.55;16.40;;;10.30;99.90;;;;;;5014583;28;20072;-78
2021/07/04 00:35:03;;;;;;;24.95;18.83;;;10.30;99.90;;;;;;5014785;28;20050;-78
2021/07/04 00:37:29;;;;;;;22.75;17.98;;;10.30;99.90;;;;;;5011445;28;20037;-78
2021/07/04 00:39:54;;;;;;;26.17;16.65;;;10.20;99.90;;;;;;5005548;28;20467;-78
2021/07/04 00:42:20;;;;;;;23.65;17.70;;;10.20;99.90;;;;;;4993662;28;20503;-78
2021/07/04 00:44:45;;;;;;;25.20;18.30;;;10.10;99.90;;;;;;5010014;28;20066;-78
2021/07/04 00:47:11;;;;;;;27.50;18.63;;;10.00;99.90;;;;;;4993703;28;20034;-78
2021/07/04 00:49:36;;;;;;;20.23;16.30;;;10.00;99.90;;;;;;5014505;28;20026;-78
2021/07/04 00:52:02;;;;;;;19.20;15.48;;;9.90;99.90;;;;;;5029498;28;20030;-78
2021/07/04 00:54:28;;;;;;;27.52;19.48;;;9.90;99.90;;;;;;5014420;28;20113;-78
2021/07/04 00:56:54;;;;;;;24.55;17.95;;;9.80;99.90;;;;;;5014454;28;20030;-78
2021/07/04 00:59:20;;;;;;;21.05;15.35;;;9.80;99.90;;;;;;4999625;28;20030;-78
2021/07/04 01:01:47;;;;;;;26.15;17.58;;;9.80;99.90;;;;;;5009658;28;20030;-78
2021/07/04 01:04:12;;;;;;;24.15;17.40;;;9.80;99.90;;;;;;5009819;28;20037;-77
2021/07/04 01:06:40;;;;;;;18.60;14.02;;;9.90;99.90;;;;;;4994676;28;20027;-78
2021/07/04 01:09:06;;;;;;;21.08;15.25;;;9.90;99.90;;;;;;5003783;28;20022;-78
2021/07/04 01:11:32;;;;;;;28.60;18.77;;;10.00;99.90;;;;;;5013933;28;20022;-78
2021/07/04 01:13:57;;;;;;;27.85;20.90;;;9.90;99.90;;;;;;5029178;28;20022;-78
2021/07/04 01:16:24;;;;;;;26.48;19.35;;;9.90;99.90;;;;;;5029216;28;20030;-78
2021/07/04 01:18:52;;;;;;;29.05;19.60;;;9.90;99.90;;;;;;5008002;28;20627;-77
2021/07/04 01:21:19;;;;;;;25.83;18.15;;;9.90;99.90;;;;;;4994028;28;20037;-77
2021/07/04 01:23:45;;;;;;;26.90;18.40;;;9.90;99.90;;;;;;4994246;28;20038;-78
2021/07/04 01:26:11;;;;;;;25.58;18.27;;;9.90;99.90;;;;;;4994240;28;20403;-78
2021/07/04 01:28:37;;;;;;;32.08;21.50;;;9.90;99.90;;;;;;4994071;28;20471;-77
2021/07/04 01:31:02;;;;;;;36.10;19.55;;;9.90;99.90;;;;;;5013492;28;20018;-78
2021/07/04 01:33:28;;;;;;;34.20;20.92;;;10.00;99.90;;;;;;4998350;28;20026;-78
2021/07/04 01:35:54;;;;;;;45.60;27.13;;;9.90;99.90;;;;;;4993097;28;20029;-78
2021/07/04 01:38:20;;;;;;;41.95;26.20;;;10.00;99.90;;;;;;4992790;28;20026;-78
2021/07/04 01:40:47;;;;;;;42.58;20.83;;;9.90;99.90;;;;;;5008304;28;20529;-78
2021/07/04 01:43:13;;;;;;;27.67;18.65;;;9.90;99.90;;;;;;5011874;28;20025;-78
2021/07/04 01:45:39;;;;;;;23.70;16.40;;;9.80;99.90;;;;;;5013512;28;20528;-78
2021/07/04 01:48:05;;;;;;;17.50;13.73;;;9.80;99.90;;;;;;5013408;28;20026;-78
2021/07/04 01:50:34;;;;;;;19.63;15.07;;;9.70;99.90;;;;;;5002174;28;20068;-78
2021/07/04 01:52:59;;;;;;;20.33;14.30;;;9.60;99.90;;;;;;4993435;28;20391;-78
2021/07/04 01:55:25;;;;;;;18.05;13.70;;;9.60;99.90;;;;;;4992505;28;20030;-78
2021/07/04 01:57:52;;;;;;;20.23;14.32;;;9.60;99.90;;;;;;4993624;28;20495;-78
2021/07/04 02:00:21;;;;;;;18.90;13.38;;;9.60;99.90;;;;;;4994672;28;20458;-78
2021/07/04 02:02:50;;;;;;;26.52;17.90;;;9.50;99.90;;;;;;4993410;28;20085;-78
2021/07/04 02:05:16;;;;;;;23.67;14.82;;;9.50;99.90;;;;;;4993566;28;20027;-78
2021/07/04 02:07:42;;;;;;;20.08;15.25;;;9.60;99.90;;;;;;4993420;28;20372;-78
2021/07/04 02:10:08;;;;;;;21.58;14.98;;;9.60;99.90;;;;;;4998487;28;20033;-78
2021/07/04 02:12:35;;;;;;;18.75;15.13;;;9.60;99.90;;;;;;5027947;28;20030;-77
2021/07/04 02:15:00;;;;;;;16.88;13.60;;;9.60;99.90;;;;;;5028154;28;20029;-78
2021/07/04 02:17:26;;;;;;;24.50;16.10;;;9.50;99.90;;;;;;5012923;28;20030;-78
2021/07/04 02:19:52;;;;;;;21.95;15.82;;;9.60;99.90;;;;;;5009040;28;20027;-78
2021/07/04 02:22:17;;;;;;;23.90;15.63;;;9.60;99.90;;;;;;4992847;28;20038;-77
2021/07/04 02:24:43;;;;;;;21.60;15.82;;;9.80;99.90;;;;;;4993021;28;20533;-78
2021/07/04 02:27:10;;;;;;;26.83;18.92;;;9.70;99.90;;;;;;4994615;28;20126;-78
2021/07/04 02:29:37;;;;;;;25.23;19.13;;;9.70;99.90;;;;;;5006602;28;20084;-78
2021/07/04 02:32:04;;;;;;;26.90;19.35;;;9.70;99.90;;;;;;5012497;28;20030;-78
2021/07/04 02:34:29;;;;;;;20.00;15.68;;;9.70;99.90;;;;;;5012560;28;20033;-78
2021/07/04 02:36:55;;;;;;;14.80;11.82;;;9.70;99.90;;;;;;5005762;28;20043;-78
2021/07/04 02:39:21;;;;;;;18.60;12.80;;;9.70;99.90;;;;;;4992861;28;20407;-78
2021/07/04 02:41:46;;;;;;;15.75;11.95;;;9.70;99.90;;;;;;4991488;28;20033;-78
2021/07/04 02:44:12;;;;;;;13.35;10.90;;;9.70;99.90;;;;;;4992867;28;20489;-78
2021/07/04 02:46:38;;;;;;;13.50;10.90;;;9.70;99.90;;;;;;4998448;28;20084;-78
2021/07/04 02:49:05;;;;;;;12.10;9.60;;;9.70;99.90;;;;;;5012480;28;20152;-78
2021/07/04 02:51:31;;;;;;;13.50;10.52;;;9.70;99.90;;;;;;5012142;28;20486;-78
2021/07/04 02:53:57;;;;;;;12.55;9.45;;;9.70;99.90;;;;;;5012232;28;20026;-78
2021/07/04 02:56:22;;;;;;;14.13;11.00;;;9.70;99.90;;;;;;5025798;28;20120;-78
2021/07/04 02:58:48;;;;;;;13.82;10.77;;;9.70;99.90;;;;;;5007848;28;20062;-78
2021/07/04 03:01:13;;;;;;;15.20;12.20;;;9.80;99.90;;;;;;5007626;28;20027;-78
2021/07/04 03:03:39;;;;;;;16.25;12.70;;;9.80;99.90;;;;;;4991266;28;20034;-79
2021/07/04 03:06:05;;;;;;;15.90;12.07;;;9.80;99.90;;;;;;4992582;28;20030;-78
2021/07/04 03:08:30;;;;;;;16.35;12.32;;;9.90;99.90;;;;;;5006758;28;20479;-78
2021/07/04 03:10:56;;;;;;;12.65;11.02;;;9.90;99.90;;;;;;5010850;28;20030;-78
2021/07/04 03:13:21;;;;;;;13.63;10.32;;;9.90;99.90;;;;;;5011859;28;20467;-78
2021/07/04 03:15:47;;;;;;;22.25;11.68;;;10.00;99.90;;;;;;5027326;28;20026;-78
2021/07/04 03:18:12;;;;;;;11.07;9.35;;;10.10;99.90;;;;;;5001218;28;20404;-78
2021/07/04 03:20:38;;;;;;;11.80;9.63;;;10.10;99.90;;;;;;5007450;28;20035;-78
2021/07/04 03:23:04;;;;;;;12.57;11.02;;;10.20;99.90;;;;;;5007054;28;20050;-78
2021/07/04 03:25:29;;;;;;;16.08;11.07;;;10.20;99.90;;;;;;4992465;28;20043;-78
2021/07/04 03:27:55;;;;;;;12.70;10.40;;;10.30;99.90;;;;;;5012468;28;20056;-78
2021/07/04 03:30:22;;;;;;;12.25;11.05;;;10.40;99.90;;;;;;5011972;28;20458;-79
2021/07/04 03:32:49;;;;;;;40.03;13.10;;;10.50;99.90;;;;;;5011713;28;20022;-78
2021/07/04 03:35:15;;;;;;;13.68;12.02;;;10.60;99.90;;;;;;5011935;28;20025;-78
2021/07/04 03:37:43;;;;;;;11.32;10.23;;;10.70;99.90;;;;;;5010913;28;20026;-78
2021/07/04 03:40:11;;;;;;;11.82;10.65;;;10.80;99.90;;;;;;4991036;28;20049;-78
2021/07/04 03:42:37;;;;;;;13.75;12.35;;;10.80;99.90;;;;;;4992068;28;20093;-78
2021/07/04 03:45:04;;;;;;;28.75;13.20;;;10.90;99.90;;;;;;4990914;28;20475;-78
2021/07/04 03:47:30;;;;;;;27.42;13.52;;;11.00;99.90;;;;;;4990847;28;20465;-79
2021/07/04 03:49:55;;;;;;;13.23;11.95;;;11.00;99.90;;;;;;5007901;28;20129;-79
2021/07/04 03:52:21;;;;;;;14.40;12.88;;;11.00;99.90;;;;;;5010189;28;20049;-78
2021/07/04 03:54:47;;;;;;;17.42;15.57;;;11.10;99.90;;;;;;5011688;28;20525;-79
2021/07/04 03:57:21;;;;;;;18.42;16.45;;;11.20;99.90;;;;;;5026946;28;20022;-78
2021/07/04 03:59:52;;;;;;;23.83;16.85;;;11.20;99.90;;;;;;5016552;28;20033;-79
2021/07/04 04:02:18;;;;;;;26.63;15.77;;;11.40;99.90;;;;;;4995652;28;20061;-79
2021/07/04 04:04:44;;;;;;;22.10;15.38;;;11.40;99.90;;;;;;4995712;28;20070;-79
2021/07/04 04:07:10;;;;;;;16.48;14.32;;;11.50;99.90;;;;;;4994473;28;20113;-79
2021/07/04 04:09:35;;;;;;;16.90;14.77;;;11.50;99.90;;;;;;5003051;28;20397;-79
2021/07/04 04:12:04;;;;;;;23.13;16.95;;;11.60;99.90;;;;;;5013502;28;20517;-79
2021/07/04 04:14:31;;;;;;;20.70;17.08;;;11.70;99.90;;;;;;5015115;28;20478;-79
2021/07/04 04:16:56;;;;;;;16.13;13.73;;;11.80;99.90;;;;;;5015239;28;20025;-79
2021/07/04 04:19:22;;;;;;;20.90;17.95;;;11.90;99.90;;;;;;5027061;28;20121;-79
2021/07/04 04:21:47;;;;;;;19.70;15.38;;;12.00;99.90;;;;;;4995247;28;20077;-79
2021/07/04 04:24:13;;;;;;;20.00;16.00;;;12.20;99.90;;;;;;4995398;28;20026;-79
2021/07/04 04:26:39;;;;;;;18.50;16.25;;;12.20;99.90;;;;;;4995316;28;20030;-79
2021/07/04 04:29:05;;;;;;;18.02;16.00;;;12.20;99.90;;;;;;4995330;28;20049;-79
2021/07/04 04:31:30;;;;;;;15.70;13.75;;;12.40;99.90;;;;;;5012297;28;20060;-79
2021/07/04 04:33:56;;;;;;;17.98;14.65;;;12.50;99.90;;;;;;5029837;28;20030;-79
2021/07/04 04:36:21;;;;;;;13.10;11.70;;;12.60;99.90;;;;;;5013878;28;20062;-79
2021/07/04 04:38:47;;;;;;;15.48;13.30;;;12.70;99.90;;;;;;5029883;28;20025;-79
2021/07/04 04:41:12;;;;;;;15.75;14.00;;;12.80;99.90;;;;;;5004381;28;20475;-79
2021/07/04 04:43:40;;;;;;;14.43;12.93;;;12.90;99.90;;;;;;5014477;28;20478;-79
2021/07/04 04:46:06;;;;;;;13.25;11.95;;;13.00;99.90;;;;;;5014579;28;20034;-79
2021/07/04 04:48:31;;;;;;;15.43;13.90;;;13.10;99.90;;;;;;5014488;28;20022;-79
2021/07/04 04:50:57;;;;;;;13.50;12.10;;;13.20;99.90;;;;;;5006908;28;20084;-79
2021/07/04 04:53:22;;;;;;;13.38;12.02;;;13.30;99.90;;;;;;4994649;28;20030;-78
2021/07/04 04:55:48;;;;;;;14.13;11.88;;;13.40;99.90;;;;;;4994823;28;20027;-79
2021/07/04 04:58:13;;;;;;;22.05;13.63;;;13.50;99.90;;;;;;5009939;28;20062;-78
2021/07/04 05:00:39;;;;;;;12.23;11.07;;;13.50;99.90;;;;;;4996561;28;20073;-78
2021/07/04 05:03:07;;;;;;;16.70;9.10;;;13.60;99.90;;;;;;5013949;28;20030;-79
2021/07/04 05:05:34;;;;;;;21.63;10.90;;;13.70;99.90;;;;;;5029451;28;20080;-78
2021/07/04 05:08:00;;;;;;;14.25;11.55;;;13.80;99.90;;;;;;5014306;28;20053;-78
2021/07/04 05:10:27;;;;;;;11.73;9.65;;;13.80;99.90;;;;;;5014026;28;20033;-79
2021/07/04 05:12:52;;;;;;;23.08;10.32;;;14.00;99.90;;;;;;4996427;28;20047;-79
2021/07/04 05:15:18;;;;;;;10.27;9.35;;;14.00;99.90;;;;;;4994576;28;20387;-79
2021/07/04 05:17:44;;;;;;;27.55;9.52;;;14.00;99.90;;;;;;4994435;28;20069;-79
2021/07/04 05:20:10;;;;;;;13.50;9.10;;;14.20;99.90;;;;;;4994465;28;20026;-79
2021/07/04 05:22:36;;;;;;;9.32;8.43;;;14.30;99.90;;;;;;5019769;28;20108;-79
2021/07/04 05:25:03;;;;;;;8.80;7.93;;;14.40;99.90;;;;;;5029135;28;20034;-78
2021/07/04 05:27:29;;;;;;;349.85;15.75;;;14.50;99.90;;;;;;5013751;28;20108;-79
2021/07/04 05:29:54;;;;;;;23.60;8.30;;;14.50;99.90;;;;;;5013892;28;20109;-78
2021/07/04 05:32:20;;;;;;;7.88;7.07;;;14.50;99.90;;;;;;5011866;28;20025;-79
2021/07/04 05:34:46;;;;;;;24.00;6.88;;;14.70;99.90;;;;;;5013594;28;20025;-79
2021/07/04 05:37:12;;;;;;;51.20;7.15;;;14.90;99.90;;;;;;5013720;28;20049;-79
2021/07/04 05:39:38;;;;;;;6.15;5.65;;;15.00;99.90;;;;;;5028878;28;20490;-79
2021/07/04 05:42:04;;;;;;;7.25;6.55;;;15.10;99.90;;;;;;5011055;28;20026;-79
2021/07/04 05:44:30;;;;;;;10.02;7.78;;;15.20;99.90;;;;;;4993857;28;20031;-79
2021/07/04 05:46:56;;;;;;;11.65;6.05;;;15.30;99.90;;;;;;4993863;28;20057;-79
2021/07/04 05:49:21;;;;;;;7.63;6.63;;;15.50;99.90;;;;;;5009031;28;20026;-79
2021/07/04 05:51:47;;;;;;;37.33;7.65;;;15.50;99.90;;;;;;4993626;28;20096;-79
2021/07/04 05:54:13;;;;;;;16.20;7.30;;;15.70;99.90;;;;;;5010053;28;20053;-79
2021/07/04 05:56:39;;;;;;;57.00;7.00;;;15.80;99.90;;;;;;5028536;28;20036;-79
2021/07/04 05:59:05;;;;;;;21.02;9.20;;;15.90;99.90;;;;;;5028504;28;20030;-79
2021/07/04 06:01:30;;;;;;;79.68;8.60;;;16.10;99.90;;;;;;5004132;28;20483;-79
2021/07/04 06:03:56;;;;;;;28.42;7.82;;;16.20;99.90;;;;;;5003120;28;20083;-79
2021/07/04 06:06:22;;;;;;;19.65;8.13;;;16.30;99.90;;;;;;4997158;28;20517;-79
2021/07/04 06:08:47;;;;;;;56.63;8.82;;;16.40;99.90;;;;;;4993286;28;20054;-79
2021/07/04 06:11:13;;;;;;;10.38;6.55;;;16.50;99.90;;;;;;4992013;28;20045;-79
2021/07/04 06:13:38;;;;;;;61.60;9.20;;;16.60;99.90;;;;;;5014122;28;20037;-79
2021/07/04 06:16:04;;;;;;;12.50;7.43;;;16.70;99.90;;;;;;5012648;28;20025;-79
2021/07/04 06:18:30;;;;;;;23.67;7.60;;;16.70;99.90;;;;;;5028011;28;20026;-79
2021/07/04 06:20:55;;;;;;;48.08;8.75;;;16.80;99.90;;;;;;5012629;28;20030;-79
2021/07/04 06:23:21;;;;;;;6.45;5.57;;;16.80;99.90;;;;;;5010701;28;20028;-79
2021/07/04 06:25:47;;;;;;;19.00;10.45;;;17.00;99.90;;;;;;5008218;28;20079;-79
2021/07/04 06:28:13;;;;;;;46.53;8.27;;;17.10;99.90;;;;;;5008150;28;20427;-79
2021/07/04 06:30:38;;;;;;;15.30;8.43;;;17.20;99.90;;;;;;4992881;28;20024;-79
2021/07/04 06:33:04;;;;;;;15.23;8.70;;;17.20;99.90;;;;;;4992657;28;20033;-79
2021/07/04 06:35:30;;;;;;;11.52;8.30;;;17.30;99.90;;;;;;5008552;28;20038;-79
2021/07/04 06:37:55;;;;;;;7.43;6.63;;;17.40;99.90;;;;;;5012529;28;20478;-79
2021/07/04 06:40:21;;;;;;;9.88;8.40;;;17.50;99.90;;;;;;5012451;28;20105;-79
2021/07/04 06:42:47;;;;;;;10.90;7.75;;;17.60;99.90;;;;;;5012289;28;20030;-79
2021/07/04 06:45:13;;;;;;;11.10;8.60;;;17.80;99.90;;;;;;5016546;28;20038;-79
2021/07/04 06:47:44;;;;;;;10.75;9.13;;;17.90;99.90;;;;;;5007693;28;20607;-78
2021/07/04 06:50:11;;;;;;;10.05;8.75;;;18.00;99.90;;;;;;4992801;28;20027;-79
2021/07/04 06:52:37;;;;;;;10.50;9.07;;;18.20;99.90;;;;;;4992412;28;20080;-79
2021/07/04 06:55:05;;;;;;;10.40;6.95;;;18.40;99.90;;;;;;4998618;28;20034;-80
2021/07/04 06:57:30;;;;;;;12.48;8.32;;;18.50;99.90;;;;;;5011043;28;20034;-80
2021/07/04 07:00:06;;;;;;;10.93;8.60;;;18.40;99.90;;;;;;5027233;28;20037;-80
2021/07/04 07:02:32;;;;;;;11.15;6.88;;;18.50;99.90;;;;;;4994314;28;20041;-79
2021/07/04 07:04:58;;;;;;;6.88;6.03;;;18.50;99.90;;;;;;4991216;28;20042;-79
2021/07/04 07:07:23;;;;;;;8.50;6.57;;;18.60;99.90;;;;;;5007550;28;20372;-79
2021/07/04 07:09:49;;;;;;;8.50;7.47;;;19.00;99.90;;;;;;4992418;28;20034;-79
2021/07/04 07:12:16;;;;;;;9.23;7.43;;;18.90;99.90;;;;;;5003602;28;20029;-79
2021/07/04 07:14:41;;;;;;;9.52;7.90;;;19.30;99.90;;;;;;5011952;28;20034;-79
2021/07/04 07:17:07;;;;;;;15.05;8.48;;;19.60;99.90;;;;;;5009716;28;20068;-79
2021/07/04 07:19:33;;;;;;;8.77;6.32;;;19.90;99.90;;;;;;4992416;28;20035;-79
2021/07/04 07:21:59;;;;;;;10.75;7.32;;;20.20;99.90;;;;;;5007211;28;20034;-78
2021/07/04 07:24:25;;;;;;;13.93;7.20;;;20.30;99.90;;;;;;4992293;28;20030;-77
2021/07/04 07:26:51;;;;;;;11.60;8.77;;;20.10;99.90;;;;;;5003348;28;20117;-77
2021/07/04 07:29:18;;;;;;;14.45;8.35;;;20.10;99.90;;;;;;5011862;28;20025;-77
2021/07/04 07:31:43;;;;;;;11.45;7.78;;;20.10;99.90;;;;;;5011695;28;20072;-77
2021/07/04 07:34:09;;;;;;;9.27;6.72;;;20.40;99.90;;;;;;5012796;28;20022;-77
2021/07/04 07:36:34;;;;;;;13.52;9.07;;;20.90;99.90;;;;;;5009200;28;20041;-78
2021/07/04 07:39:00;;;;;;;9.07;7.90;;;20.80;99.90;;;;;;5011492;28;20026;-78
2021/07/04 07:41:25;;;;;;;10.93;7.88;;;20.80;99.90;;;;;;4995854;28;20037;-78
2021/07/04 07:43:51;;;;;;;12.63;7.65;;;20.70;99.90;;;;;;4996110;28;20030;-78
2021/07/04 07:46:17;;;;;;;13.07;7.80;;;21.00;99.90;;;;;;4993795;28;20057;-78
2021/07/04 07:48:42;;;;;;;11.48;7.15;;;21.20;99.90;;;;;;5037111;28;20037;-79
2021/07/04 07:51:08;;;;;;;8.38;6.72;;;21.30;99.90;;;;;;5019279;28;20026;-79
2021/07/04 07:53:34;;;;;;;10.35;7.00;;;21.00;99.90;;;;;;5025245;28;20025;-79
2021/07/04 07:56:00;;;;;;;9.05;6.85;;;21.30;99.90;;;;;;5035249;28;20029;-77
2021/07/04 07:58:26;;;;;;;7.40;6.30;;;21.60;99.90;;;;;;5016749;28;20029;-78
2021/07/04 08:00:52;;;;;;;9.77;5.07;;;21.60;99.90;;;;;;5030570;28;20069;-77
2021/07/04 08:03:17;;;;;;;9.07;6.28;;;21.60;99.90;;;;;;5029837;28;20036;-77
2021/07/04 08:05:43;;;;;;;11.38;5.53;;;21.70;99.90;;;;;;4995761;28;20593;-77
2021/07/04 08:08:09;;;;;;;7.28;4.28;;;22.00;99.90;;;;;;4995717;28;20062;-78
2021/07/04 08:10:34;;;;;;;7.25;3.83;;;22.20;99.90;;;;;;4995653;28;20022;-77
2021/07/04 08:13:01;;;;;;;6.43;3.88;;;22.50;99.90;;;;;;4995280;28;20026;-77
2021/07/04 08:15:27;;;;;;;5.15;3.90;;;22.60;99.90;;;;;;4998000;28;20084;-77
2021/07/04 08:17:52;;;;;;;5.00;3.70;;;22.70;99.90;;;;;;4995654;28;20038;-78
2021/07/04 08:20:18;;;;;;;5.90;3.20;;;22.80;99.90;;;;;;4994790;28;20105;-79
2021/07/04 08:22:44;;;;;;;8.00;3.10;;;22.80;99.90;;;;;;5011756;28;20041;-78
2021/07/04 08:25:11;;;;;;;5.80;3.03;;;22.90;99.90;;;;;;5010036;28;20102;-78
2021/07/04 08:27:37;;;;;;;3.63;3.10;;;22.90;99.90;;;;;;5027927;28;20060;-79
2021/07/04 08:30:08;;;;;;;5.78;3.22;;;22.80;99.90;;;;;;5028906;28;20092;-81
2021/07/04 08:32:34;;;;;;;3.75;3.05;;;22.80;99.90;;;;;;5021472;28;20033;-82
2021/07/04 08:35:00;;;;;;;7.00;3.95;;;22.90;99.90;;;;;;5013136;28;20104;-80
2021/07/04 08:37:25;;;;;;;5.38;3.88;;;23.00;99.90;;;;;;5019119;28;20034;-81
2021/07/04 08:39:51;;;;;;;6.50;3.65;;;23.30;99.90;;;;;;5020027;28;20056;-81
2021/07/04 08:42:18;;;;;;;5.45;3.65;;;23.30;99.90;;;;;;5022041;28;20030;-80
2021/07/04 08:44:52;;;;;;;6.43;3.75;;;23.10;99.90;;;;;;5020420;28;20026;-81
2021/07/04 08:47:19;;;;;;;9.38;4.55;;;23.30;99.90;;;;;;5025358;28;20394;-81
2021/07/04 08:49:46;;;;;;;5.63;3.60;;;23.30;99.90;;;;;;5034422;28;20072;-80
2021/07/04 08:52:12;;;;;;;4.10;3.60;;;23.90;99.90;;;;;;5034056;28;20036;-81
2021/07/04 08:54:38;;;;;;;4.50;3.25;;;24.20;99.90;;;;;;5032771;28;20022;-81
2021/07/04 08:57:08;;;;;;;3.92;3.13;;;24.80;99.90;;;;;;5018398;28;20025;-80
2021/07/04 08:59:42;;;;;;;10.82;4.22;;;25.00;99.90;;;;;;5014439;28;20026;-78
2021/07/04 09:02:11;;;;;;;13.38;3.88;;;25.00;99.90;;;;;;5014035;28;20029;-77
2021/07/04 09:04:39;;;;;;;5.13;3.38;;;24.80;99.90;;;;;;5014184;28;20029;-77
2021/07/04 09:07:06;;;;;;;5.38;3.10;;;24.30;99.90;;;;;;5016985;28;20037;-77
2021/07/04 09:09:32;;;;;;;5.47;3.50;;;24.40;99.90;;;;;;4994726;28;20080;-77
2021/07/04 09:12:05;;;;;;;10.95;2.85;;;24.50;99.90;;;;;;5009368;28;20437;-79
2021/07/04 09:14:45;;;;;;;7.78;3.08;;;24.80;99.90;;;;;;4994453;28;20100;-78
2021/07/04 09:17:18;;;;;;;6.72;4.07;;;25.40;99.90;;;;;;5004163;28;20033;-77
2021/07/04 09:19:59;;;;;;;6.10;3.65;;;25.70;99.90;;;;;;5013918;28;20109;-78
2021/07/04 09:22:38;;;;;;;4.88;3.53;;;25.80;99.90;;;;;;5029022;28;20053;-79
2021/07/04 09:25:25;;;;;;;8.20;3.15;;;25.90;99.90;;;;;;5013905;28;20022;-78
2021/07/04 09:28:07;;;;;;;7.65;3.78;;;25.50;99.90;;;;;;5000894;28;20049;-78
2021/07/04 09:30:41;;;;;;;5.55;2.67;;;25.40;99.90;;;;;;5009382;28;20029;-78
2021/07/04 09:33:26;;;;;;;5.00;3.00;;;25.30;99.90;;;;;;4993811;28;20026;-78
2021/07/04 09:35:56;;;;;;;5.18;2.83;;;25.20;99.90;;;;;;5009198;28;20030;-78
2021/07/04 09:38:23;;;;;;;6.95;3.40;;;25.30;99.90;;;;;;5007679;28;20022;-79
2021/07/04 09:40:50;;;;;;;4.97;3.05;;;25.60;99.90;;;;;;5012348;28;20486;-77
2021/07/04 09:43:18;;;;;;;4.55;2.72;;;26.00;99.90;;;;;;4993748;28;20113;-79
2021/07/04 09:46:00;;;;;;;3.20;2.90;;;26.30;99.90;;;;;;5009071;28;20026;-78
2021/07/04 09:48:29;;;;;;;6.03;2.95;;;26.70;99.90;;;;;;5020204;28;20566;-79
2021/07/04 09:51:01;;;;;;;7.97;2.78;;;27.10;99.90;;;;;;5013442;28;20445;-78
2021/07/04 09:53:38;;;;;;;2.83;2.53;;;27.40;99.90;;;;;;5013090;28;20018;-79
2021/07/04 09:56:12;;;;;;;8.02;2.80;;;27.70;99.90;;;;;;5013092;28;20042;-79
2021/07/04 09:58:39;;;;;;;5.25;2.65;;;27.90;99.90;;;;;;5009510;28;20076;-78
2021/07/04 10:01:05;;;;;;;2.60;2.20;;;28.00;99.90;;;;;;5013073;28;20033;-79
2021/07/04 10:03:31;;;;;;;10.20;2.92;;;27.80;99.90;;;;;;5013021;28;20088;-80
2021/07/04 10:06:04;;;;;;;5.40;2.50;;;27.60;99.90;;;;;;5013227;28;20490;-79
2021/07/04 10:08:33;;;;;;;3.60;2.63;;;27.50;99.90;;;;;;5006434;28;20109;-77
2021/07/04 10:11:02;;;;;;;5.30;2.70;;;27.20;99.90;;;;;;5023796;28;20034;-79
2021/07/04 10:13:30;;;;;;;3.40;2.92;;;26.80;99.90;;;;;;5011400;28;20022;-79
2021/07/04 10:15:55;;;;;;;5.55;3.13;;;26.50;99.90;;;;;;5028178;28;20026;-78
2021/07/04 10:18:22;;;;;;;3.42;2.80;;;26.20;99.90;;;;;;5010347;28;20045;-79
2021/07/04 10:20:49;;;;;;;4.00;2.58;;;26.20;99.90;;;;;;4999162;28;20026;-78
2021/07/04 10:23:20;;;;;;;7.35;3.13;;;25.90;99.90;;;;;;5010926;28;20036;-79
2021/07/04 10:25:47;;;;;;;5.82;2.92;;;25.90;99.90;;;;;;5026121;28;20084;-78
2021/07/04 10:28:16;;;;;;;6.05;3.65;;;25.90;99.90;;;;;;5013414;28;20033;-79
2021/07/04 10:30:43;;;;;;;5.50;2.90;;;25.60;99.90;;;;;;5012344;28;20486;-79
2021/07/04 10:33:21;;;;;;;7.10;3.97;;;25.40;99.90;;;;;;5014822;28;20380;-79
2021/07/04 10:35:49;;;;;;;3.90;3.47;;;25.80;99.90;;;;;;5012472;28;20510;-79
2021/07/04 10:38:16;;;;;;;6.00;3.20;;;26.20;99.90;;;;;;5023460;28;20080;-79
2021/07/04 10:40:42;;;;;;;6.25;2.97;;;26.20;99.90;;;;;;5016990;28;20113;-78
2021/07/04 10:43:08;;;;;;;5.40;3.25;;;26.20;99.90;;;;;;5012478;28;20105;-79
2021/07/04 10:45:40;;;;;;;4.70;3.17;;;25.90;99.90;;;;;;5012551;28;20026;-79
2021/07/04 10:48:30;;;;;;;8.33;3.13;;;25.30;99.90;;;;;;5012271;28;20083;-78
2021/07/04 10:51:12;;;;;;;7.25;3.65;;;25.10;99.90;;;;;;5007615;28;20084;-77
2021/07/04 10:53:58;;;;;;;7.00;3.22;;;24.60;99.90;;;;;;5007979;28;20018;-78
2021/07/04 10:56:39;;;;;;;4.97;2.88;;;24.60;99.90;;;;;;4992762;28;20038;-78
2021/07/04 10:59:09;;;;;;;4.90;3.25;;;24.60;99.90;;;;;;4992594;28;20018;-79
2021/07/04 11:01:59;;;;;;;11.55;3.75;;;24.60;99.90;;;;;;5016375;28;20022;-78
2021/07/04 11:04:27;;;;;;;5.32;3.40;;;24.60;99.90;;;;;;5027347;28;20026;-78
2021/07/04 11:06:54;;;;;;;4.10;3.30;;;24.50;99.90;;;;;;5012160;28;20033;-78
2021/07/04 11:09:20;;;;;;;4.38;3.13;;;24.30;99.90;;;;;;5011844;28;20025;-79
2021/07/04 11:11:45;;;;;;;9.27;3.90;;;24.30;99.90;;;;;;5003855;28;20029;-78
2021/07/04 11:14:11;;;;;;;6.28;3.90;;;24.60;99.90;;;;;;4992406;28;20026;-78
2021/07/04 11:16:36;;;;;;;8.77;3.83;;;24.60;99.90;;;;;;4992556;28;20027;-78
2021/07/04 11:19:07;;;;;;;6.07;4.20;;;24.80;99.90;;;;;;4992334;28;20023;-78
2021/07/04 11:21:48;;;;;;;5.78;2.85;;;25.20;99.90;;;;;;4994968;28;20513;-78
2021/07/04 11:24:18;;;;;;;10.15;4.03;;;25.90;99.90;;;;;;5011932;28;20026;-78
2021/07/04 11:27:24;;;;;;;7.88;3.90;;;26.60;99.90;;;;;;5011875;28;20030;-78
2021/07/04 11:30:18;;;;;;;8.75;4.07;;;27.10;99.90;;;;;;5027062;28;20030;-80
2021/07/04 11:32:44;;;;;;;7.95;4.75;;;26.70;99.90;;;;;;5001319;28;20030;-79
2021/07/04 11:35:10;;;;;;;5.72;4.28;;;26.10;99.90;;;;;;5007400;28;20065;-79
2021/07/04 11:37:41;;;;;;;9.75;4.45;;;25.50;99.90;;;;;;4992299;28;20073;-79
2021/07/04 11:40:08;;;;;;;11.18;6.22;;;25.00;99.90;;;;;;4992102;28;20030;-79
2021/07/04 11:42:33;;;;;;;10.57;4.72;;;24.70;99.90;;;;;;5012584;28;20034;-78
2021/07/04 11:44:59;;;;;;;9.18;4.72;;;24.70;99.90;;;;;;5006105;28;20030;-79
2021/07/04 11:47:25;;;;;;;6.03;3.80;;;25.10;99.90;;;;;;4991937;28;20026;-79
2021/07/04 11:49:50;;;;;;;7.43;4.43;;;25.10;99.90;;;;;;5018864;28;20028;-79
2021/07/04 11:52:20;;;;;;;7.05;4.10;;;25.20;99.90;;;;;;5016294;28;20034;-79
2021/07/04 11:54:47;;;;;;;5.80;4.13;;;25.40;99.90;;;;;;5007370;28;20026;-79
2021/07/04 11:57:30;;;;;;;5.97;4.35;;;25.60;99.90;;;;;;5010758;28;20029;-80
2021/07/04 12:00:07;;;;;;;4.68;3.45;;;26.10;99.90;;;;;;5027486;28;20040;-79
2021/07/04 12:02:43;;;;;;;7.88;3.80;;;26.50;99.90;;;;;;5030187;28;20034;-81
2021/07/04 12:05:11;;;;;;;8.10;4.40;;;26.90;99.90;;;;;;4992021;28;20407;-80
2021/07/04 12:07:37;;;;;;;6.72;5.20;;;26.90;99.90;;;;;;4991992;28;20117;-82
2021/07/04 12:10:03;;;;;;;7.57;5.22;;;26.50;99.90;;;;;;4990698;28;20112;-81
2021/07/04 12:12:34;;;;;;;7.90;4.65;;;26.10;99.90;;;;;;5006651;28;20765;-81
2021/07/04 12:15:05;;;;;;;13.40;4.47;;;25.70;99.90;;;;;;5004471;28;20161;-81
2021/07/04 12:17:48;;;;;;;4.60;3.85;;;25.70;99.90;;;;;;4991964;28;20105;-81
2021/07/04 12:20:24;;;;;;;9.57;4.60;;;25.80;99.90;;;;;;4991679;28;20029;-78
2021/07/04 12:23:00;;;;;;;5.50;4.50;;;25.80;99.90;;;;;;4995027;28;20045;-81
2021/07/04 12:25:26;;;;;;;6.85;4.70;;;25.70;99.90;;;;;;4997854;28;20026;-81
2021/07/04 12:27:57;;;;;;;5.72;4.10;;;25.60;99.90;;;;;;5007111;28;20053;-81
2021/07/04 12:30:30;;;;;;;9.45;5.45;;;25.60;99.90;;;;;;5014960;28;20022;-80
2021/07/04 12:33:08;;;;;;;5.95;4.53;;;25.30;99.90;;;;;;5014620;28;20428;-81
2021/07/04 12:35:43;;;;;;;5.35;4.43;;;25.10;99.90;;;;;;5014454;28;20037;-81
2021/07/04 12:38:21;;;;;;;9.70;5.20;;;25.10;99.90;;;;;;4995114;28;20041;-82
2021/07/04 12:41:09;;;;;;;7.50;4.60;;;25.00;99.90;;;;;;5010339;28;20026;-81